sensor_id;sensor_type;location;lat;lon;timestamp;temperature;humidity
33594;DHT22;19920;52.242;20.940;2023-08-06T00:01:50;19.20;99.90
33594;DHT22;19920;52.242;20.940;2023-08-06T00:04:16;19.20;99.90
33594;DHT22;19920;52.242;20.940;2023-08-06T00:06:42;19.20;99.90
33594;DHT22;19920;52.242;20.940;2023-08-06T00:09:07;19.20;99.90
33594;DHT22;19920;52.242;20.940;2023-08-06T00:11:33;19.20;99.90
33594;DHT22;19920;52.242;20.940;2023-08-06T00:13:59;19.20;99.90
33594;DHT22;19920;52.242;20.940;2023-08-06T00:16:24;19.20;99.90
33594;DHT22;19920;52.242;20.940;2023-08-06T00:18:50;19.20;99.90
33594;DHT22;19920;52.242;20.940;2023-08-06T00:21:16;19.30;99.90
33594;DHT22;19920;52.242;20.940;2023-08-06T00:23:42;19.20;99.90
33594;DHT22;19920;52.242;20.940;2023-08-06T00:26:07;19.20;99.90
33594;DHT22;19920;52.242;20.940;2023-08-06T00:28:33;19.10;99.90
33594;DHT22;19920;52.242;20.940;2023-08-06T00:30:58;19.10;99.90
33594;DHT22;19920;52.242;20.940;2023-08-06T00:33:24;19.10;99.90
33594;DHT22;19920;52.242;20.940;2023-08-06T00:35:50;18.90;99.90
33594;DHT22;19920;52.242;20.940;2023-08-06T00:38:16;18.90;99.90
33594;DHT22;19920;52.242;20.940;2023-08-06T00:40:41;18.90;99.90
33594;DHT22;19920;52.242;20.940;2023-08-06T00:43:07;18.90;99.90
33594;DHT22;19920;52.242;20.940;2023-08-06T00:45:35;18.90;99.90
33594;DHT22;19920;52.242;20.940;2023-08-06T00:48:02;18.80;99.90
33594;DHT22;19920;52.242;20.940;2023-08-06T00:50:29;18.80;99.90
33594;DHT22;19920;52.242;20.940;2023-08-06T00:52:54;18.80;99.90
33594;DHT22;19920;52.242;20.940;2023-08-06T00:55:20;18.80;99.90
33594;DHT22;19920;52.242;20.940;2023-08-06T00:57:46;18.80;99.90
33594;DHT22;19920;52.242;20.940;2023-08-06T01:00:12;18.80;99.90
33594;DHT22;19920;52.242;20.940;2023-08-06T01:02:38;18.70;99.90
33594;DHT22;19920;52.242;20.940;2023-08-06T01:05:03;18.70;99.90
33594;DHT22;19920;52.242;20.940;2023-08-06T01:15:32;18.80;99.90
33594;DHT22;19920;52.242;20.940;2023-08-06T01:18:00;18.80;99.90
33594;DHT22;19920;52.242;20.940;2023-08-06T01:20:30;18.80;99.90
33594;DHT22;19920;52.242;20.940;2023-08-06T01:22:56;18.80;99.90
33594;DHT22;19920;52.242;20.940;2023-08-06T01:25:45;18.80;99.90
33594;DHT22;19920;52.242;20.940;2023-08-06T01:28:32;18.80;99.90
33594;DHT22;19920;52.242;20.940;2023-08-06T01:31:02;18.80;99.90
33594;DHT22;19920;52.242;20.940;2023-08-06T01:33:31;18.80;99.90
33594;DHT22;19920;52.242;20.940;2023-08-06T01:35:57;18.80;99.90
33594;DHT22;19920;52.242;20.940;2023-08-06T01:38:24;18.80;99.90
33594;DHT22;19920;52.242;20.940;2023-08-06T01:40:50;18.80;99.90
33594;DHT22;19920;52.242;20.940;2023-08-06T01:43:15;18.80;99.90
33594;DHT22;19920;52.242;20.940;2023-08-06T01:45:41;18.80;99.90
33594;DHT22;19920;52.242;20.940;2023-08-06T01:48:06;18.80;99.90
33594;DHT22;19920;52.242;20.940;2023-08-06T01:50:32;18.80;99.90
33594;DHT22;19920;52.242;20.940;2023-08-06T01:52:57;18.80;99.90
33594;DHT22;19920;52.242;20.940;2023-08-06T01:55:23;18.80;99.90
33594;DHT22;19920;52.242;20.940;2023-08-06T01:57:48;18.90;99.90
33594;DHT22;19920;52.242;20.940;2023-08-06T02:00:14;18.80;99.90
33594;DHT22;19920;52.242;20.940;2023-08-06T02:02:40;18.90;99.90
33594;DHT22;19920;52.242;20.940;2023-08-06T02:05:06;18.90;99.90
33594;DHT22;19920;52.242;20.940;2023-08-06T02:07:32;18.90;99.90
33594;DHT22;19920;52.242;20.940;2023-08-06T02:09:57;18.90;99.90
33594;DHT22;19920;52.242;20.940;2023-08-06T02:12:23;18.90;99.90
33594;DHT22;19920;52.242;20.940;2023-08-06T02:14:48;18.90;99.90
33594;DHT22;19920;52.242;20.940;2023-08-06T02:17:14;19.00;99.90
33594;DHT22;19920;52.242;20.940;2023-08-06T02:19:39;19.00;99.90
33594;DHT22;19920;52.242;20.940;2023-08-06T02:22:05;19.00;99.90
33594;DHT22;19920;52.242;20.940;2023-08-06T02:24:31;19.00;99.90
33594;DHT22;19920;52.242;20.940;2023-08-06T02:26:56;19.00;99.90
33594;DHT22;19920;52.242;20.940;2023-08-06T02:29:22;19.10;99.90
33594;DHT22;19920;52.242;20.940;2023-08-06T02:31:47;19.00;99.90
33594;DHT22;19920;52.242;20.940;2023-08-06T02:34:13;19.10;99.90
33594;DHT22;19920;52.242;20.940;2023-08-06T02:36:38;19.10;99.90
33594;DHT22;19920;52.242;20.940;2023-08-06T02:39:04;19.10;99.90
33594;DHT22;19920;52.242;20.940;2023-08-06T02:41:29;19.10;99.90
33594;DHT22;19920;52.242;20.940;2023-08-06T02:43:55;19.10;99.90
33594;DHT22;19920;52.242;20.940;2023-08-06T02:46:20;19.10;99.90
33594;DHT22;19920;52.242;20.940;2023-08-06T02:48:46;19.20;99.90
33594;DHT22;19920;52.242;20.940;2023-08-06T02:51:12;19.10;99.90
33594;DHT22;19920;52.242;20.940;2023-08-06T02:53:37;19.20;99.90
33594;DHT22;19920;52.242;20.940;2023-08-06T02:56:03;19.10;99.90
33594;DHT22;19920;52.242;20.940;2023-08-06T02:58:28;19.10;99.90
33594;DHT22;19920;52.242;20.940;2023-08-06T03:01:05;19.20;99.90
33594;DHT22;19920;52.242;20.940;2023-08-06T03:03:31;19.20;99.90
33594;DHT22;19920;52.242;20.940;2023-08-06T03:05:57;19.30;99.90
33594;DHT22;19920;52.242;20.940;2023-08-06T03:08:22;19.30;99.90
33594;DHT22;19920;52.242;20.940;2023-08-06T03:10:52;19.30;99.90
33594;DHT22;19920;52.242;20.940;2023-08-06T03:13:17;19.30;99.90
33594;DHT22;19920;52.242;20.940;2023-08-06T03:15:45;19.30;99.90
33594;DHT22;19920;52.242;20.940;2023-08-06T03:18:16;19.30;99.90
33594;DHT22;19920;52.242;20.940;2023-08-06T03:20:42;19.30;99.90
33594;DHT22;19920;52.242;20.940;2023-08-06T03:23:07;19.30;99.90
33594;DHT22;19920;52.242;20.940;2023-08-06T03:25:35;19.40;99.90
33594;DHT22;19920;52.242;20.940;2023-08-06T03:28:01;19.40;99.90
33594;DHT22;19920;52.242;20.940;2023-08-06T03:30:26;19.40;99.90
33594;DHT22;19920;52.242;20.940;2023-08-06T03:32:52;19.40;99.90
33594;DHT22;19920;52.242;20.940;2023-08-06T03:35:17;19.40;99.90
33594;DHT22;19920;52.242;20.940;2023-08-06T03:37:43;19.40;99.90
33594;DHT22;19920;52.242;20.940;2023-08-06T03:40:09;19.40;99.90
33594;DHT22;19920;52.242;20.940;2023-08-06T03:42:35;19.50;99.90
33594;DHT22;19920;52.242;20.940;2023-08-06T03:45:00;19.50;99.90
33594;DHT22;19920;52.242;20.940;2023-08-06T03:47:26;19.50;99.90
33594;DHT22;19920;52.242;20.940;2023-08-06T03:49:51;19.50;99.90
33594;DHT22;19920;52.242;20.940;2023-08-06T03:52:17;19.50;99.90
33594;DHT22;19920;52.242;20.940;2023-08-06T03:54:43;19.60;99.90
33594;DHT22;19920;52.242;20.940;2023-08-06T03:57:09;19.50;99.90
33594;DHT22;19920;52.242;20.940;2023-08-06T03:59:34;19.60;99.90
33594;DHT22;19920;52.242;20.940;2023-08-06T04:02:00;19.60;99.90
33594;DHT22;19920;52.242;20.940;2023-08-06T04:04:25;19.60;99.90
33594;DHT22;19920;52.242;20.940;2023-08-06T04:06:51;19.60;99.90
33594;DHT22;19920;52.242;20.940;2023-08-06T04:09:17;19.70;99.90
33594;DHT22;19920;52.242;20.940;2023-08-06T04:11:42;19.70;99.90
33594;DHT22;19920;52.242;20.940;2023-08-06T04:14:08;19.70;99.90
33594;DHT22;19920;52.242;20.940;2023-08-06T04:16:33;19.70;99.90
33594;DHT22;19920;52.242;20.940;2023-08-06T04:18:59;19.80;99.90
33594;DHT22;19920;52.242;20.940;2023-08-06T04:21:24;19.70;99.90
33594;DHT22;19920;52.242;20.940;2023-08-06T04:23:50;19.80;99.90
33594;DHT22;19920;52.242;20.940;2023-08-06T04:26:15;19.80;99.90
33594;DHT22;19920;52.242;20.940;2023-08-06T04:28:41;19.80;99.90
33594;DHT22;19920;52.242;20.940;2023-08-06T04:31:07;19.90;99.90
33594;DHT22;19920;52.242;20.940;2023-08-06T04:33:32;19.90;99.90
33594;DHT22;19920;52.242;20.940;2023-08-06T04:35:59;19.90;99.90
33594;DHT22;19920;52.242;20.940;2023-08-06T04:38:25;20.00;99.90
33594;DHT22;19920;52.242;20.940;2023-08-06T04:40:50;20.00;99.90
33594;DHT22;19920;52.242;20.940;2023-08-06T04:43:16;20.10;99.90
33594;DHT22;19920;52.242;20.940;2023-08-06T04:45:49;20.10;99.90
33594;DHT22;19920;52.242;20.940;2023-08-06T04:48:15;20.20;99.90
33594;DHT22;19920;52.242;20.940;2023-08-06T04:50:45;20.20;99.90
33594;DHT22;19920;52.242;20.940;2023-08-06T04:53:11;20.30;99.90
33594;DHT22;19920;52.242;20.940;2023-08-06T04:55:36;20.40;99.90
33594;DHT22;19920;52.242;20.940;2023-08-06T04:58:02;20.50;99.90
33594;DHT22;19920;52.242;20.940;2023-08-06T05:00:27;20.50;99.90
33594;DHT22;19920;52.242;20.940;2023-08-06T05:02:53;20.50;99.90
33594;DHT22;19920;52.242;20.940;2023-08-06T05:05:18;20.60;99.90
33594;DHT22;19920;52.242;20.940;2023-08-06T05:07:47;20.60;99.90
33594;DHT22;19920;52.242;20.940;2023-08-06T05:10:13;20.70;99.90
33594;DHT22;19920;52.242;20.940;2023-08-06T05:12:39;20.80;99.90
33594;DHT22;19920;52.242;20.940;2023-08-06T05:15:04;20.80;99.90
33594;DHT22;19920;52.242;20.940;2023-08-06T05:17:30;20.80;99.90
33594;DHT22;19920;52.242;20.940;2023-08-06T05:19:56;20.90;99.90
33594;DHT22;19920;52.242;20.940;2023-08-06T05:22:21;20.80;99.90
33594;DHT22;19920;52.242;20.940;2023-08-06T05:24:47;20.80;99.90
33594;DHT22;19920;52.242;20.940;2023-08-06T05:27:12;20.80;99.90
33594;DHT22;19920;52.242;20.940;2023-08-06T05:29:38;20.90;99.90
33594;DHT22;19920;52.242;20.940;2023-08-06T05:32:04;20.90;99.90
33594;DHT22;19920;52.242;20.940;2023-08-06T05:34:29;21.00;99.90
33594;DHT22;19920;52.242;20.940;2023-08-06T05:36:55;21.00;99.90
33594;DHT22;19920;52.242;20.940;2023-08-06T05:39:20;21.10;99.90
33594;DHT22;19920;52.242;20.940;2023-08-06T05:41:46;21.10;99.90
33594;DHT22;19920;52.242;20.940;2023-08-06T05:44:12;21.10;99.90
33594;DHT22;19920;52.242;20.940;2023-08-06T05:46:37;21.20;99.90
33594;DHT22;19920;52.242;20.940;2023-08-06T05:49:03;21.20;99.90
33594;DHT22;19920;52.242;20.940;2023-08-06T05:51:29;21.30;99.90
33594;DHT22;19920;52.242;20.940;2023-08-06T05:53:54;21.30;99.90
33594;DHT22;19920;52.242;20.940;2023-08-06T05:56:20;21.40;99.90
33594;DHT22;19920;52.242;20.940;2023-08-06T05:58:45;21.50;99.90
33594;DHT22;19920;52.242;20.940;2023-08-06T06:01:12;21.60;99.90
33594;DHT22;19920;52.242;20.940;2023-08-06T06:03:38;21.60;99.90
33594;DHT22;19920;52.242;20.940;2023-08-06T06:06:04;21.70;99.90
33594;DHT22;19920;52.242;20.940;2023-08-06T06:08:29;21.80;99.90
33594;DHT22;19920;52.242;20.940;2023-08-06T06:10:55;21.80;99.90
33594;DHT22;19920;52.242;20.940;2023-08-06T06:13:20;21.90;99.90
33594;DHT22;19920;52.242;20.940;2023-08-06T06:15:46;21.90;99.90
33594;DHT22;19920;52.242;20.940;2023-08-06T06:18:13;22.10;99.90
33594;DHT22;19920;52.242;20.940;2023-08-06T06:20:38;22.10;99.90
33594;DHT22;19920;52.242;20.940;2023-08-06T06:23:04;22.20;99.90
33594;DHT22;19920;52.242;20.940;2023-08-06T06:25:30;22.20;99.90
33594;DHT22;19920;52.242;20.940;2023-08-06T06:27:55;22.30;99.90
33594;DHT22;19920;52.242;20.940;2023-08-06T06:30:21;22.30;99.90
33594;DHT22;19920;52.242;20.940;2023-08-06T06:32:47;22.30;99.90
33594;DHT22;19920;52.242;20.940;2023-08-06T06:35:12;22.40;99.90
33594;DHT22;19920;52.242;20.940;2023-08-06T06:37:38;22.50;99.90
33594;DHT22;19920;52.242;20.940;2023-08-06T06:40:04;22.60;99.90
33594;DHT22;19920;52.242;20.940;2023-08-06T06:42:30;22.80;99.90
33594;DHT22;19920;52.242;20.940;2023-08-06T06:44:55;23.00;99.90
33594;DHT22;19920;52.242;20.940;2023-08-06T06:47:21;23.30;99.90
33594;DHT22;19920;52.242;20.940;2023-08-06T06:49:46;23.50;99.90
33594;DHT22;19920;52.242;20.940;2023-08-06T06:52:12;23.70;99.90
33594;DHT22;19920;52.242;20.940;2023-08-06T06:54:37;23.70;99.90
33594;DHT22;19920;52.242;20.940;2023-08-06T06:57:03;23.80;99.90
33594;DHT22;19920;52.242;20.940;2023-08-06T06:59:29;23.90;99.90
33594;DHT22;19920;52.242;20.940;2023-08-06T07:01:55;23.90;99.90
33594;DHT22;19920;52.242;20.940;2023-08-06T07:04:21;23.90;99.90
33594;DHT22;19920;52.242;20.940;2023-08-06T07:06:47;24.00;99.90
33594;DHT22;19920;52.242;20.940;2023-08-06T07:09:13;24.10;99.90
33594;DHT22;19920;52.242;20.940;2023-08-06T07:11:38;24.10;99.90
33594;DHT22;19920;52.242;20.940;2023-08-06T07:14:04;24.10;99.90
33594;DHT22;19920;52.242;20.940;2023-08-06T07:16:29;24.10;99.90
33594;DHT22;19920;52.242;20.940;2023-08-06T07:18:55;24.10;99.90
33594;DHT22;19920;52.242;20.940;2023-08-06T07:21:21;24.10;99.90
33594;DHT22;19920;52.242;20.940;2023-08-06T07:23:46;24.10;99.90
33594;DHT22;19920;52.242;20.940;2023-08-06T07:26:15;24.20;99.90
33594;DHT22;19920;52.242;20.940;2023-08-06T07:28:40;24.20;99.90
33594;DHT22;19920;52.242;20.940;2023-08-06T07:31:06;24.30;99.90
33594;DHT22;19920;52.242;20.940;2023-08-06T07:33:31;24.30;99.90
33594;DHT22;19920;52.242;20.940;2023-08-06T07:35:57;24.40;99.90
33594;DHT22;19920;52.242;20.940;2023-08-06T07:38:23;24.50;99.90
33594;DHT22;19920;52.242;20.940;2023-08-06T07:40:48;24.70;99.90
33594;DHT22;19920;52.242;20.940;2023-08-06T07:43:14;24.90;99.90
33594;DHT22;19920;52.242;20.940;2023-08-06T07:45:39;25.10;99.90
33594;DHT22;19920;52.242;20.940;2023-08-06T07:48:05;25.30;99.90
33594;DHT22;19920;52.242;20.940;2023-08-06T07:50:30;25.40;99.90
33594;DHT22;19920;52.242;20.940;2023-08-06T07:52:56;25.40;99.90
33594;DHT22;19920;52.242;20.940;2023-08-06T07:55:22;25.50;99.90
33594;DHT22;19920;52.242;20.940;2023-08-06T07:57:47;25.60;99.90
33594;DHT22;19920;52.242;20.940;2023-08-06T08:00:13;25.70;99.90
33594;DHT22;19920;52.242;20.940;2023-08-06T08:02:39;25.90;99.90
33594;DHT22;19920;52.242;20.940;2023-08-06T08:05:04;26.00;99.90
33594;DHT22;19920;52.242;20.940;2023-08-06T08:07:32;26.00;99.90
33594;DHT22;19920;52.242;20.940;2023-08-06T08:09:58;26.00;99.90
33594;DHT22;19920;52.242;20.940;2023-08-06T08:12:23;26.20;99.90
33594;DHT22;19920;52.242;20.940;2023-08-06T08:14:49;26.40;99.90
33594;DHT22;19920;52.242;20.940;2023-08-06T08:17:14;26.30;99.90
33594;DHT22;19920;52.242;20.940;2023-08-06T08:19:40;26.30;99.90
33594;DHT22;19920;52.242;20.940;2023-08-06T08:22:06;26.40;99.90
33594;DHT22;19920;52.242;20.940;2023-08-06T08:24:32;26.40;99.90
33594;DHT22;19920;52.242;20.940;2023-08-06T08:26:57;26.40;99.90
33594;DHT22;19920;52.242;20.940;2023-08-06T08:29:23;26.40;99.90
33594;DHT22;19920;52.242;20.940;2023-08-06T08:31:49;26.50;99.90
33594;DHT22;19920;52.242;20.940;2023-08-06T08:34:18;26.60;99.90
33594;DHT22;19920;52.242;20.940;2023-08-06T08:36:44;26.60;99.90
33594;DHT22;19920;52.242;20.940;2023-08-06T08:39:12;26.80;99.90
33594;DHT22;19920;52.242;20.940;2023-08-06T08:41:39;26.80;99.90
33594;DHT22;19920;52.242;20.940;2023-08-06T08:44:08;26.80;99.90
33594;DHT22;19920;52.242;20.940;2023-08-06T08:46:36;26.80;99.90
33594;DHT22;19920;52.242;20.940;2023-08-06T08:49:02;26.90;99.90
33594;DHT22;19920;52.242;20.940;2023-08-06T08:51:28;27.10;99.90
33594;DHT22;19920;52.242;20.940;2023-08-06T08:53:55;27.20;99.90
33594;DHT22;19920;52.242;20.940;2023-08-06T08:56:24;27.30;99.90
33594;DHT22;19920;52.242;20.940;2023-08-06T08:58:50;27.40;99.90
33594;DHT22;19920;52.242;20.940;2023-08-06T09:01:19;27.50;99.90
33594;DHT22;19920;52.242;20.940;2023-08-06T09:03:46;27.60;99.90
33594;DHT22;19920;52.242;20.940;2023-08-06T09:06:12;27.60;99.90
33594;DHT22;19920;52.242;20.940;2023-08-06T09:08:53;27.70;99.90
33594;DHT22;19920;52.242;20.940;2023-08-06T09:11:20;27.90;99.90
33594;DHT22;19920;52.242;20.940;2023-08-06T09:13:47;27.90;99.90
33594;DHT22;19920;52.242;20.940;2023-08-06T09:16:13;27.90;99.90
33594;DHT22;19920;52.242;20.940;2023-08-06T09:18:39;28.00;99.90
33594;DHT22;19920;52.242;20.940;2023-08-06T09:21:04;28.10;99.90
33594;DHT22;19920;52.242;20.940;2023-08-06T09:23:31;28.10;99.90
33594;DHT22;19920;52.242;20.940;2023-08-06T09:25:57;28.30;99.90
33594;DHT22;19920;52.242;20.940;2023-08-06T09:28:23;28.30;99.90
33594;DHT22;19920;52.242;20.940;2023-08-06T09:30:50;28.30;99.90
33594;DHT22;19920;52.242;20.940;2023-08-06T09:33:19;28.50;99.90
33594;DHT22;19920;52.242;20.940;2023-08-06T09:35:46;28.50;99.90
33594;DHT22;19920;52.242;20.940;2023-08-06T09:38:12;28.60;99.90
33594;DHT22;19920;52.242;20.940;2023-08-06T09:40:39;28.50;99.90
33594;DHT22;19920;52.242;20.940;2023-08-06T09:43:05;28.60;99.90
33594;DHT22;19920;52.242;20.940;2023-08-06T09:45:35;28.70;99.90
33594;DHT22;19920;52.242;20.940;2023-08-06T09:48:08;29.00;99.90
33594;DHT22;19920;52.242;20.940;2023-08-06T09:50:36;29.40;99.90
33594;DHT22;19920;52.242;20.940;2023-08-06T09:53:03;29.70;99.90
33594;DHT22;19920;52.242;20.940;2023-08-06T09:55:29;29.70;99.90
33594;DHT22;19920;52.242;20.940;2023-08-06T09:57:55;29.60;99.90
33594;DHT22;19920;52.242;20.940;2023-08-06T10:00:21;29.40;99.90
33594;DHT22;19920;52.242;20.940;2023-08-06T10:02:48;29.40;99.90
33594;DHT22;19920;52.242;20.940;2023-08-06T10:05:15;29.50;99.90
33594;DHT22;19920;52.242;20.940;2023-08-06T10:07:43;29.60;99.90
33594;DHT22;19920;52.242;20.940;2023-08-06T10:10:09;29.80;99.90
33594;DHT22;19920;52.242;20.940;2023-08-06T10:12:39;29.80;99.90
33594;DHT22;19920;52.242;20.940;2023-08-06T10:15:10;29.90;99.90
33594;DHT22;19920;52.242;20.940;2023-08-06T10:17:37;29.80;99.90
33594;DHT22;19920;52.242;20.940;2023-08-06T10:20:05;29.80;99.90
33594;DHT22;19920;52.242;20.940;2023-08-06T10:22:32;29.80;99.90
33594;DHT22;19920;52.242;20.940;2023-08-06T10:24:59;29.90;99.90
33594;DHT22;19920;52.242;20.940;2023-08-06T10:27:39;29.90;99.90
33594;DHT22;19920;52.242;20.940;2023-08-06T10:30:40;29.90;99.90
33594;DHT22;19920;52.242;20.940;2023-08-06T10:33:06;29.80;99.90
33594;DHT22;19920;52.242;20.940;2023-08-06T10:38:08;30.00;99.90
33594;DHT22;19920;52.242;20.940;2023-08-06T10:40:36;30.20;99.90
33594;DHT22;19920;52.242;20.940;2023-08-06T10:43:02;30.20;99.90
33594;DHT22;19920;52.242;20.940;2023-08-06T10:45:28;30.10;99.90
33594;DHT22;19920;52.242;20.940;2023-08-06T10:47:56;30.20;99.90
33594;DHT22;19920;52.242;20.940;2023-08-06T10:50:26;30.30;99.90
33594;DHT22;19920;52.242;20.940;2023-08-06T10:52:52;30.30;99.90
33594;DHT22;19920;52.242;20.940;2023-08-06T10:55:28;30.20;99.90
33594;DHT22;19920;52.242;20.940;2023-08-06T10:57:55;30.10;99.90
33594;DHT22;19920;52.242;20.940;2023-08-06T11:00:24;30.30;99.90
33594;DHT22;19920;52.242;20.940;2023-08-06T11:02:51;30.20;99.90
33594;DHT22;19920;52.242;20.940;2023-08-06T11:05:17;30.20;99.90
33594;DHT22;19920;52.242;20.940;2023-08-06T11:07:43;30.50;99.90
33594;DHT22;19920;52.242;20.940;2023-08-06T11:10:13;30.60;99.90
33594;DHT22;19920;52.242;20.940;2023-08-06T11:12:39;30.50;99.90
33594;DHT22;19920;52.242;20.940;2023-08-06T11:15:05;30.60;99.90
33594;DHT22;19920;52.242;20.940;2023-08-06T11:17:33;30.50;99.90
33594;DHT22;19920;52.242;20.940;2023-08-06T11:20:03;30.40;99.90
33594;DHT22;19920;52.242;20.940;2023-08-06T11:22:29;30.30;99.90
33594;DHT22;19920;52.242;20.940;2023-08-06T11:24:55;30.20;99.90
33594;DHT22;19920;52.242;20.940;2023-08-06T11:27:21;30.20;99.90
33594;DHT22;19920;52.242;20.940;2023-08-06T11:29:46;30.30;99.90
33594;DHT22;19920;52.242;20.940;2023-08-06T11:32:12;30.30;99.90
33594;DHT22;19920;52.242;20.940;2023-08-06T11:34:39;30.20;99.90
33594;DHT22;19920;52.242;20.940;2023-08-06T11:37:06;30.10;99.90
33594;DHT22;19920;52.242;20.940;2023-08-06T11:39:35;30.00;99.90
33594;DHT22;19920;52.242;20.940;2023-08-06T11:42:08;30.10;99.90
33594;DHT22;19920;52.242;20.940;2023-08-06T11:44:36;30.30;99.90
33594;DHT22;19920;52.242;20.940;2023-08-06T11:47:04;30.60;99.90
33594;DHT22;19920;52.242;20.940;2023-08-06T11:49:48;30.70;99.90
33594;DHT22;19920;52.242;20.940;2023-08-06T11:52:19;30.90;99.90
33594;DHT22;19920;52.242;20.940;2023-08-06T11:55:05;31.00;99.90
33594;DHT22;19920;52.242;20.940;2023-08-06T11:57:36;30.90;99.90
33594;DHT22;19920;52.242;20.940;2023-08-06T12:00:09;31.10;99.90
33594;DHT22;19920;52.242;20.940;2023-08-06T12:02:35;31.00;99.90
33594;DHT22;19920;52.242;20.940;2023-08-06T12:07:49;30.90;99.90
33594;DHT22;19920;52.242;20.940;2023-08-06T12:10:15;30.80;99.90
33594;DHT22;19920;52.242;20.940;2023-08-06T12:12:41;30.80;99.90
33594;DHT22;19920;52.242;20.940;2023-08-06T12:15:08;30.80;99.90
33594;DHT22;19920;52.242;20.940;2023-08-06T12:17:34;30.70;99.90
33594;DHT22;19920;52.242;20.940;2023-08-06T12:20:00;30.60;99.90
33594;DHT22;19920;52.242;20.940;2023-08-06T12:22:26;30.70;99.90
33594;DHT22;19920;52.242;20.940;2023-08-06T12:24:52;30.50;99.90
33594;DHT22;19920;52.242;20.940;2023-08-06T12:27:18;30.30;99.90
33594;DHT22;19920;52.242;20.940;2023-08-06T12:29:45;30.20;99.90
33594;DHT22;19920;52.242;20.940;2023-08-06T12:32:12;30.10;99.90
33594;DHT22;19920;52.242;20.940;2023-08-06T12:34:41;30.00;99.90
33594;DHT22;19920;52.242;20.940;2023-08-06T12:37:08;30.00;99.90
33594;DHT22;19920;52.242;20.940;2023-08-06T12:39:35;29.90;99.90
33594;DHT22;19920;52.242;20.940;2023-08-06T12:42:02;29.70;99.90
33594;DHT22;19920;52.242;20.940;2023-08-06T12:44:27;29.60;99.90
33594;DHT22;19920;52.242;20.940;2023-08-06T12:46:54;29.50;99.90
33594;DHT22;19920;52.242;20.940;2023-08-06T12:49:20;29.30;99.90
33594;DHT22;19920;52.242;20.940;2023-08-06T12:51:50;29.10;99.90
33594;DHT22;19920;52.242;20.940;2023-08-06T12:54:20;29.00;99.90
33594;DHT22;19920;52.242;20.940;2023-08-06T12:56:47;28.80;99.90
33594;DHT22;19920;52.242;20.940;2023-08-06T12:59:17;28.70;99.90
33594;DHT22;19920;52.242;20.940;2023-08-06T13:01:44;28.70;99.90
33594;DHT22;19920;52.242;20.940;2023-08-06T13:04:10;28.70;99.90
33594;DHT22;19920;52.242;20.940;2023-08-06T13:06:39;28.80;99.90
33594;DHT22;19920;52.242;20.940;2023-08-06T13:09:12;28.90;99.90
33594;DHT22;19920;52.242;20.940;2023-08-06T13:11:39;28.90;99.90
33594;DHT22;19920;52.242;20.940;2023-08-06T13:14:09;29.00;99.90
33594;DHT22;19920;52.242;20.940;2023-08-06T13:16:36;29.00;99.90
33594;DHT22;19920;52.242;20.940;2023-08-06T13:19:03;29.30;99.90
33594;DHT22;19920;52.242;20.940;2023-08-06T13:21:58;29.50;99.90
33594;DHT22;19920;52.242;20.940;2023-08-06T13:24:24;29.90;99.90
33594;DHT22;19920;52.242;20.940;2023-08-06T13:26:49;30.20;99.90
33594;DHT22;19920;52.242;20.940;2023-08-06T13:29:15;30.40;99.90
33594;DHT22;19920;52.242;20.940;2023-08-06T13:31:41;30.40;99.90
33594;DHT22;19920;52.242;20.940;2023-08-06T13:34:06;30.30;99.90
33594;DHT22;19920;52.242;20.940;2023-08-06T13:36:32;30.40;99.90
33594;DHT22;19920;52.242;20.940;2023-08-06T13:38:57;30.60;99.90
33594;DHT22;19920;52.242;20.940;2023-08-06T13:41:23;30.80;99.90
33594;DHT22;19920;52.242;20.940;2023-08-06T13:43:49;30.80;99.90
33594;DHT22;19920;52.242;20.940;2023-08-06T13:46:15;30.40;99.90
33594;DHT22;19920;52.242;20.940;2023-08-06T13:48:43;30.20;99.90
33594;DHT22;19920;52.242;20.940;2023-08-06T13:51:10;30.10;99.90
33594;DHT22;19920;52.242;20.940;2023-08-06T13:53:37;30.00;99.90
33594;DHT22;19920;52.242;20.940;2023-08-06T13:56:02;30.00;99.90
33594;DHT22;19920;52.242;20.940;2023-08-06T13:58:28;30.00;99.90
33594;DHT22;19920;52.242;20.940;2023-08-06T14:00:54;29.80;99.90
33594;DHT22;19920;52.242;20.940;2023-08-06T14:03:20;29.40;99.90
33594;DHT22;19920;52.242;20.940;2023-08-06T14:05:46;29.30;99.90
33594;DHT22;19920;52.242;20.940;2023-08-06T14:08:11;29.30;99.90
33594;DHT22;19920;52.242;20.940;2023-08-06T14:10:37;29.30;99.90
33594;DHT22;19920;52.242;20.940;2023-08-06T14:13:02;29.20;99.90
33594;DHT22;19920;52.242;20.940;2023-08-06T14:15:28;29.60;99.90
33594;DHT22;19920;52.242;20.940;2023-08-06T14:17:54;30.00;99.90
33594;DHT22;19920;52.242;20.940;2023-08-06T14:20:19;30.20;99.90
33594;DHT22;19920;52.242;20.940;2023-08-06T14:22:45;30.40;99.90
33594;DHT22;19920;52.242;20.940;2023-08-06T14:25:10;30.10;99.90
33594;DHT22;19920;52.242;20.940;2023-08-06T14:27:36;29.90;99.90
33594;DHT22;19920;52.242;20.940;2023-08-06T14:30:05;29.70;99.90
33594;DHT22;19920;52.242;20.940;2023-08-06T14:32:31;29.50;99.90
33594;DHT22;19920;52.242;20.940;2023-08-06T14:34:56;29.40;99.90
33594;DHT22;19920;52.242;20.940;2023-08-06T14:37:23;29.50;99.90
33594;DHT22;19920;52.242;20.940;2023-08-06T14:39:48;29.70;99.90
33594;DHT22;19920;52.242;20.940;2023-08-06T14:42:14;29.60;99.90
33594;DHT22;19920;52.242;20.940;2023-08-06T14:44:39;29.60;99.90
33594;DHT22;19920;52.242;20.940;2023-08-06T14:47:06;29.70;99.90
33594;DHT22;19920;52.242;20.940;2023-08-06T14:49:32;29.60;99.90
33594;DHT22;19920;52.242;20.940;2023-08-06T14:51:57;29.60;99.90
33594;DHT22;19920;52.242;20.940;2023-08-06T14:54:25;30.00;99.90
33594;DHT22;19920;52.242;20.940;2023-08-06T14:56:52;30.50;99.90
33594;DHT22;19920;52.242;20.940;2023-08-06T14:59:18;30.60;99.90
33594;DHT22;19920;52.242;20.940;2023-08-06T15:01:43;30.30;99.90
33594;DHT22;19920;52.242;20.940;2023-08-06T15:04:09;30.00;99.90
33594;DHT22;19920;52.242;20.940;2023-08-06T15:06:34;29.70;99.90
33594;DHT22;19920;52.242;20.940;2023-08-06T15:09:00;29.50;99.90
33594;DHT22;19920;52.242;20.940;2023-08-06T15:11:26;29.10;99.90
33594;DHT22;19920;52.242;20.940;2023-08-06T15:13:52;29.10;99.90
33594;DHT22;19920;52.242;20.940;2023-08-06T15:16:18;30.10;99.90
33594;DHT22;19920;52.242;20.940;2023-08-06T15:18:43;31.60;99.90
33594;DHT22;19920;52.242;20.940;2023-08-06T15:21:09;32.90;99.90
33594;DHT22;19920;52.242;20.940;2023-08-06T15:23:35;33.20;99.90
33594;DHT22;19920;52.242;20.940;2023-08-06T15:26:01;33.10;99.90